sensor_id;sensor_type;location;lat;lon;timestamp;P1;durP1;ratioP1;P2;durP2;ratioP2
53299;SDS011;39187;48.476;8.310;2023-04-24T00:01:21;1.60;;;1.50;;
53299;SDS011;39187;48.476;8.310;2023-04-24T00:03:46;3.27;;;1.93;;
53299;SDS011;39187;48.476;8.310;2023-04-24T00:06:12;3.20;;;1.87;;
53299;SDS011;39187;48.476;8.310;2023-04-24T00:08:37;1.80;;;1.70;;
53299;SDS011;39187;48.476;8.310;2023-04-24T00:11:03;2.00;;;1.80;;
53299;SDS011;39187;48.476;8.310;2023-04-24T00:13:29;2.80;;;1.90;;
53299;SDS011;39187;48.476;8.310;2023-04-24T00:15:55;1.80;;;1.70;;
53299;SDS011;39187;48.476;8.310;2023-04-24T00:18:21;2.03;;;1.90;;
53299;SDS011;39187;48.476;8.310;2023-04-24T00:20:46;1.70;;;1.60;;
53299;SDS011;39187;48.476;8.310;2023-04-24T00:23:12;2.13;;;2.03;;
53299;SDS011;39187;48.476;8.310;2023-04-24T00:25:38;3.53;;;1.80;;
53299;SDS011;39187;48.476;8.310;2023-04-24T00:28:05;2.70;;;2.13;;
53299;SDS011;39187;48.476;8.310;2023-04-24T00:30:30;2.07;;;1.97;;
53299;SDS011;39187;48.476;8.310;2023-04-24T00:32:56;3.10;;;1.83;;
53299;SDS011;39187;48.476;8.310;2023-04-24T00:35:22;3.23;;;3.03;;
53299;SDS011;39187;48.476;8.310;2023-04-24T00:37:48;1.60;;;1.50;;
53299;SDS011;39187;48.476;8.310;2023-04-24T00:40:13;1.60;;;1.50;;
53299;SDS011;39187;48.476;8.310;2023-04-24T00:42:39;2.10;;;2.00;;
53299;SDS011;39187;48.476;8.310;2023-04-24T00:45:06;2.23;;;2.13;;
53299;SDS011;39187;48.476;8.310;2023-04-24T00:47:34;4.50;;;2.13;;
53299;SDS011;39187;48.476;8.310;2023-04-24T00:50:04;2.10;;;2.00;;
53299;SDS011;39187;48.476;8.310;2023-04-24T00:52:31;2.03;;;1.93;;
53299;SDS011;39187;48.476;8.310;2023-04-24T00:54:57;2.07;;;1.97;;
53299;SDS011;39187;48.476;8.310;2023-04-24T00:57:23;2.63;;;2.53;;
53299;SDS011;39187;48.476;8.310;2023-04-24T00:59:50;1.80;;;1.70;;
53299;SDS011;39187;48.476;8.310;2023-04-24T01:02:18;1.50;;;1.40;;
53299;SDS011;39187;48.476;8.310;2023-04-24T01:04:45;1.63;;;1.63;;
53299;SDS011;39187;48.476;8.310;2023-04-24T01:07:11;1.57;;;1.47;;
53299;SDS011;39187;48.476;8.310;2023-04-24T01:09:40;1.80;;;1.70;;
53299;SDS011;39187;48.476;8.310;2023-04-24T01:12:08;1.97;;;1.87;;
53299;SDS011;39187;48.476;8.310;2023-04-24T01:14:34;1.67;;;1.57;;
53299;SDS011;39187;48.476;8.310;2023-04-24T01:17:00;2.03;;;1.93;;
53299;SDS011;39187;48.476;8.310;2023-04-24T01:19:26;1.60;;;1.60;;
53299;SDS011;39187;48.476;8.310;2023-04-24T01:21:53;2.10;;;1.97;;
53299;SDS011;39187;48.476;8.310;2023-04-24T01:24:19;2.00;;;1.90;;
53299;SDS011;39187;48.476;8.310;2023-04-24T01:26:45;3.07;;;2.00;;
53299;SDS011;39187;48.476;8.310;2023-04-24T01:29:11;2.30;;;2.10;;
53299;SDS011;39187;48.476;8.310;2023-04-24T01:31:37;1.93;;;1.83;;
53299;SDS011;39187;48.476;8.310;2023-04-24T01:34:04;1.80;;;1.70;;
53299;SDS011;39187;48.476;8.310;2023-04-24T01:36:31;1.90;;;1.80;;
53299;SDS011;39187;48.476;8.310;2023-04-24T01:38:58;1.40;;;1.40;;
53299;SDS011;39187;48.476;8.310;2023-04-24T01:41:23;1.30;;;1.30;;
53299;SDS011;39187;48.476;8.310;2023-04-24T01:43:50;1.67;;;1.30;;
53299;SDS011;39187;48.476;8.310;2023-04-24T01:46:15;1.10;;;1.10;;
53299;SDS011;39187;48.476;8.310;2023-04-24T01:48:41;1.47;;;1.37;;
53299;SDS011;39187;48.476;8.310;2023-04-24T01:51:07;1.30;;;1.20;;
53299;SDS011;39187;48.476;8.310;2023-04-24T01:53:32;1.30;;;1.13;;
53299;SDS011;39187;48.476;8.310;2023-04-24T01:55:58;1.47;;;1.37;;
53299;SDS011;39187;48.476;8.310;2023-04-24T01:58:23;1.27;;;1.17;;
53299;SDS011;39187;48.476;8.310;2023-04-24T02:00:49;1.40;;;1.30;;
53299;SDS011;39187;48.476;8.310;2023-04-24T02:03:15;0.87;;;0.87;;
53299;SDS011;39187;48.476;8.310;2023-04-24T02:05:43;1.30;;;1.20;;
53299;SDS011;39187;48.476;8.310;2023-04-24T02:08:09;1.20;;;0.93;;
53299;SDS011;39187;48.476;8.310;2023-04-24T02:10:34;1.37;;;1.30;;
53299;SDS011;39187;48.476;8.310;2023-04-24T02:13:00;1.27;;;1.07;;
53299;SDS011;39187;48.476;8.310;2023-04-24T02:15:25;1.43;;;1.40;;
53299;SDS011;39187;48.476;8.310;2023-04-24T02:17:51;14.97;;;1.70;;
53299;SDS011;39187;48.476;8.310;2023-04-24T02:20:16;2.50;;;1.63;;
53299;SDS011;39187;48.476;8.310;2023-04-24T02:22:42;1.27;;;1.17;;
53299;SDS011;39187;48.476;8.310;2023-04-24T02:27:37;1.87;;;1.77;;
53299;SDS011;39187;48.476;8.310;2023-04-24T02:30:02;1.50;;;1.40;;
53299;SDS011;39187;48.476;8.310;2023-04-24T02:32:28;1.67;;;1.57;;
53299;SDS011;39187;48.476;8.310;2023-04-24T02:34:54;1.43;;;1.33;;
53299;SDS011;39187;48.476;8.310;2023-04-24T02:37:19;1.93;;;1.37;;
53299;SDS011;39187;48.476;8.310;2023-04-24T02:39:44;1.70;;;1.40;;
53299;SDS011;39187;48.476;8.310;2023-04-24T02:42:10;1.20;;;1.20;;
53299;SDS011;39187;48.476;8.310;2023-04-24T02:44:36;1.37;;;1.10;;
53299;SDS011;39187;48.476;8.310;2023-04-24T02:47:01;1.83;;;1.20;;
53299;SDS011;39187;48.476;8.310;2023-04-24T02:49:27;1.13;;;1.10;;
53299;SDS011;39187;48.476;8.310;2023-04-24T02:51:52;2.60;;;1.03;;
53299;SDS011;39187;48.476;8.310;2023-04-24T02:54:18;1.20;;;1.20;;
53299;SDS011;39187;48.476;8.310;2023-04-24T02:56:43;1.37;;;1.00;;
53299;SDS011;39187;48.476;8.310;2023-04-24T02:59:09;5.17;;;1.37;;
53299;SDS011;39187;48.476;8.310;2023-04-24T03:01:35;1.53;;;1.43;;
53299;SDS011;39187;48.476;8.310;2023-04-24T03:04:01;2.13;;;1.03;;
53299;SDS011;39187;48.476;8.310;2023-04-24T03:06:27;1.20;;;1.20;;
53299;SDS011;39187;48.476;8.310;2023-04-24T03:08:53;1.47;;;1.40;;
53299;SDS011;39187;48.476;8.310;2023-04-24T03:11:19;2.00;;;1.37;;
53299;SDS011;39187;48.476;8.310;2023-04-24T03:13:45;1.90;;;1.70;;
53299;SDS011;39187;48.476;8.310;2023-04-24T03:16:10;1.50;;;1.40;;
53299;SDS011;39187;48.476;8.310;2023-04-24T03:18:36;1.63;;;1.53;;
53299;SDS011;39187;48.476;8.310;2023-04-24T03:21:01;1.53;;;1.43;;
53299;SDS011;39187;48.476;8.310;2023-04-24T03:23:28;1.97;;;1.60;;
53299;SDS011;39187;48.476;8.310;2023-04-24T03:25:54;1.00;;;1.00;;
53299;SDS011;39187;48.476;8.310;2023-04-24T03:28:20;1.00;;;1.00;;
53299;SDS011;39187;48.476;8.310;2023-04-24T03:30:45;1.17;;;0.93;;
53299;SDS011;39187;48.476;8.310;2023-04-24T03:33:11;0.80;;;0.80;;
53299;SDS011;39187;48.476;8.310;2023-04-24T03:35:36;2.40;;;1.00;;
53299;SDS011;39187;48.476;8.310;2023-04-24T03:38:02;1.37;;;1.30;;
53299;SDS011;39187;48.476;8.310;2023-04-24T03:40:29;1.20;;;1.20;;
53299;SDS011;39187;48.476;8.310;2023-04-24T03:42:55;1.37;;;1.27;;
53299;SDS011;39187;48.476;8.310;2023-04-24T03:45:21;2.50;;;1.33;;
53299;SDS011;39187;48.476;8.310;2023-04-24T03:47:46;1.53;;;1.43;;
53299;SDS011;39187;48.476;8.310;2023-04-24T03:50:12;1.63;;;1.60;;
53299;SDS011;39187;48.476;8.310;2023-04-24T03:52:37;1.80;;;1.70;;
53299;SDS011;39187;48.476;8.310;2023-04-24T03:55:03;1.30;;;1.20;;
53299;SDS011;39187;48.476;8.310;2023-04-24T03:57:29;1.77;;;1.67;;
53299;SDS011;39187;48.476;8.310;2023-04-24T03:59:54;1.63;;;1.53;;
53299;SDS011;39187;48.476;8.310;2023-04-24T04:02:20;1.50;;;1.50;;
53299;SDS011;39187;48.476;8.310;2023-04-24T04:04:46;2.73;;;2.03;;
53299;SDS011;39187;48.476;8.310;2023-04-24T04:07:11;2.70;;;2.13;;
53299;SDS011;39187;48.476;8.310;2023-04-24T04:09:38;2.67;;;2.47;;
53299;SDS011;39187;48.476;8.310;2023-04-24T04:12:03;2.70;;;2.60;;
53299;SDS011;39187;48.476;8.310;2023-04-24T04:14:29;2.77;;;2.67;;
53299;SDS011;39187;48.476;8.310;2023-04-24T04:16:54;3.20;;;3.00;;
53299;SDS011;39187;48.476;8.310;2023-04-24T04:19:20;2.87;;;2.77;;
53299;SDS011;39187;48.476;8.310;2023-04-24T04:21:46;3.07;;;2.97;;
53299;SDS011;39187;48.476;8.310;2023-04-24T04:24:15;3.30;;;3.20;;
53299;SDS011;39187;48.476;8.310;2023-04-24T04:26:41;3.73;;;3.43;;
53299;SDS011;39187;48.476;8.310;2023-04-24T04:29:12;3.83;;;3.47;;
53299;SDS011;39187;48.476;8.310;2023-04-24T04:31:38;3.63;;;3.43;;
53299;SDS011;39187;48.476;8.310;2023-04-24T04:34:04;4.53;;;4.23;;
53299;SDS011;39187;48.476;8.310;2023-04-24T04:36:30;4.23;;;4.03;;
53299;SDS011;39187;48.476;8.310;2023-04-24T04:38:56;4.67;;;4.47;;
53299;SDS011;39187;48.476;8.310;2023-04-24T04:41:22;4.40;;;4.07;;
53299;SDS011;39187;48.476;8.310;2023-04-24T04:43:47;4.07;;;3.87;;
53299;SDS011;39187;48.476;8.310;2023-04-24T04:46:13;4.40;;;4.20;;
53299;SDS011;39187;48.476;8.310;2023-04-24T04:48:38;3.80;;;3.60;;
53299;SDS011;39187;48.476;8.310;2023-04-24T04:51:04;4.07;;;3.87;;
53299;SDS011;39187;48.476;8.310;2023-04-24T04:53:30;3.73;;;3.53;;
53299;SDS011;39187;48.476;8.310;2023-04-24T04:55:55;3.80;;;3.70;;
53299;SDS011;39187;48.476;8.310;2023-04-24T04:58:21;3.60;;;3.50;;
53299;SDS011;39187;48.476;8.310;2023-04-24T05:00:47;3.77;;;3.67;;
53299;SDS011;39187;48.476;8.310;2023-04-24T05:03:13;4.00;;;3.90;;
53299;SDS011;39187;48.476;8.310;2023-04-24T05:05:39;4.50;;;3.47;;
53299;SDS011;39187;48.476;8.310;2023-04-24T05:08:06;3.70;;;3.47;;
53299;SDS011;39187;48.476;8.310;2023-04-24T05:10:34;4.20;;;4.00;;
53299;SDS011;39187;48.476;8.310;2023-04-24T05:13:02;3.40;;;3.30;;
53299;SDS011;39187;48.476;8.310;2023-04-24T05:15:28;3.47;;;3.27;;
53299;SDS011;39187;48.476;8.310;2023-04-24T05:17:55;3.07;;;2.97;;
53299;SDS011;39187;48.476;8.310;2023-04-24T05:20:20;3.57;;;3.47;;
53299;SDS011;39187;48.476;8.310;2023-04-24T05:22:46;3.97;;;3.50;;
53299;SDS011;39187;48.476;8.310;2023-04-24T05:25:11;3.60;;;3.50;;
53299;SDS011;39187;48.476;8.310;2023-04-24T05:27:37;3.37;;;3.27;;
53299;SDS011;39187;48.476;8.310;2023-04-24T05:30:03;3.87;;;3.67;;
53299;SDS011;39187;48.476;8.310;2023-04-24T05:32:29;3.33;;;3.23;;
53299;SDS011;39187;48.476;8.310;2023-04-24T05:34:55;3.87;;;3.10;;
53299;SDS011;39187;48.476;8.310;2023-04-24T05:37:20;3.70;;;3.50;;
53299;SDS011;39187;48.476;8.310;2023-04-24T05:39:46;4.20;;;4.00;;
53299;SDS011;39187;48.476;8.310;2023-04-24T05:42:11;4.10;;;3.80;;
53299;SDS011;39187;48.476;8.310;2023-04-24T05:44:37;4.17;;;3.70;;
53299;SDS011;39187;48.476;8.310;2023-04-24T05:47:02;3.37;;;3.27;;
53299;SDS011;39187;48.476;8.310;2023-04-24T05:49:28;4.40;;;4.10;;
53299;SDS011;39187;48.476;8.310;2023-04-24T05:51:53;4.30;;;4.00;;
53299;SDS011;39187;48.476;8.310;2023-04-24T05:54:19;3.70;;;3.50;;
53299;SDS011;39187;48.476;8.310;2023-04-24T05:56:44;4.47;;;4.17;;
53299;SDS011;39187;48.476;8.310;2023-04-24T05:59:10;3.93;;;3.67;;
53299;SDS011;39187;48.476;8.310;2023-04-24T06:01:35;4.77;;;4.40;;
53299;SDS011;39187;48.476;8.310;2023-04-24T06:04:01;4.10;;;3.80;;
53299;SDS011;39187;48.476;8.310;2023-04-24T06:06:28;4.27;;;3.97;;
53299;SDS011;39187;48.476;8.310;2023-04-24T06:08:54;5.77;;;5.27;;
53299;SDS011;39187;48.476;8.310;2023-04-24T06:11:19;4.80;;;4.60;;
53299;SDS011;39187;48.476;8.310;2023-04-24T06:13:45;5.47;;;5.07;;
53299;SDS011;39187;48.476;8.310;2023-04-24T06:16:10;7.80;;;4.97;;
53299;SDS011;39187;48.476;8.310;2023-04-24T06:18:36;3.83;;;3.47;;
53299;SDS011;39187;48.476;8.310;2023-04-24T06:21:01;4.03;;;2.97;;
53299;SDS011;39187;48.476;8.310;2023-04-24T06:23:27;2.40;;;2.30;;
53299;SDS011;39187;48.476;8.310;2023-04-24T06:25:53;2.73;;;2.63;;
53299;SDS011;39187;48.476;8.310;2023-04-24T06:28:18;3.00;;;2.80;;
53299;SDS011;39187;48.476;8.310;2023-04-24T06:30:44;3.67;;;3.47;;
53299;SDS011;39187;48.476;8.310;2023-04-24T06:33:09;3.60;;;3.40;;
53299;SDS011;39187;48.476;8.310;2023-04-24T06:35:35;3.60;;;3.40;;
53299;SDS011;39187;48.476;8.310;2023-04-24T06:38:02;3.80;;;3.70;;
53299;SDS011;39187;48.476;8.310;2023-04-24T06:40:28;3.73;;;3.43;;
53299;SDS011;39187;48.476;8.310;2023-04-24T06:42:54;4.30;;;4.10;;
53299;SDS011;39187;48.476;8.310;2023-04-24T06:45:19;3.80;;;3.47;;
53299;SDS011;39187;48.476;8.310;2023-04-24T06:47:45;4.00;;;3.70;;
53299;SDS011;39187;48.476;8.310;2023-04-24T06:50:10;4.00;;;3.80;;
53299;SDS011;39187;48.476;8.310;2023-04-24T06:52:36;5.37;;;3.50;;
53299;SDS011;39187;48.476;8.310;2023-04-24T06:55:02;3.60;;;3.50;;
53299;SDS011;39187;48.476;8.310;2023-04-24T06:57:28;4.07;;;3.67;;
53299;SDS011;39187;48.476;8.310;2023-04-24T06:59:54;3.40;;;3.30;;
53299;SDS011;39187;48.476;8.310;2023-04-24T07:02:20;3.50;;;3.30;;
53299;SDS011;39187;48.476;8.310;2023-04-24T07:04:46;3.20;;;3.00;;
53299;SDS011;39187;48.476;8.310;2023-04-24T07:07:13;3.40;;;3.20;;
53299;SDS011;39187;48.476;8.310;2023-04-24T07:09:39;8.53;;;3.93;;
53299;SDS011;39187;48.476;8.310;2023-04-24T07:12:07;3.83;;;3.40;;
53299;SDS011;39187;48.476;8.310;2023-04-24T07:14:33;3.70;;;3.40;;
53299;SDS011;39187;48.476;8.310;2023-04-24T07:16:59;2.87;;;2.67;;
53299;SDS011;39187;48.476;8.310;2023-04-24T07:19:24;3.00;;;2.90;;
53299;SDS011;39187;48.476;8.310;2023-04-24T07:21:50;3.70;;;3.50;;
53299;SDS011;39187;48.476;8.310;2023-04-24T07:24:15;2.70;;;2.60;;
53299;SDS011;39187;48.476;8.310;2023-04-24T07:26:41;3.50;;;3.30;;
53299;SDS011;39187;48.476;8.310;2023-04-24T07:29:06;4.70;;;3.80;;
53299;SDS011;39187;48.476;8.310;2023-04-24T07:31:32;3.60;;;3.30;;
53299;SDS011;39187;48.476;8.310;2023-04-24T07:33:58;5.00;;;3.00;;
53299;SDS011;39187;48.476;8.310;2023-04-24T07:36:24;5.03;;;3.40;;
53299;SDS011;39187;48.476;8.310;2023-04-24T07:38:51;4.70;;;3.00;;
53299;SDS011;39187;48.476;8.310;2023-04-24T07:41:17;3.50;;;3.27;;
53299;SDS011;39187;48.476;8.310;2023-04-24T07:43:42;2.97;;;2.87;;
53299;SDS011;39187;48.476;8.310;2023-04-24T07:46:09;4.00;;;3.27;;
53299;SDS011;39187;48.476;8.310;2023-04-24T07:48:35;3.37;;;3.27;;
53299;SDS011;39187;48.476;8.310;2023-04-24T07:51:01;3.30;;;3.00;;
53299;SDS011;39187;48.476;8.310;2023-04-24T07:53:26;4.13;;;3.23;;
53299;SDS011;39187;48.476;8.310;2023-04-24T07:55:52;3.50;;;2.97;;
53299;SDS011;39187;48.476;8.310;2023-04-24T07:58:20;3.30;;;3.20;;
53299;SDS011;39187;48.476;8.310;2023-04-24T08:00:46;4.90;;;3.27;;
53299;SDS011;39187;48.476;8.310;2023-04-24T08:03:11;3.27;;;3.17;;
53299;SDS011;39187;48.476;8.310;2023-04-24T08:05:37;3.30;;;3.10;;
53299;SDS011;39187;48.476;8.310;2023-04-24T08:08:03;3.67;;;3.47;;
53299;SDS011;39187;48.476;8.310;2023-04-24T08:10:29;3.50;;;3.40;;
53299;SDS011;39187;48.476;8.310;2023-04-24T08:12:54;3.20;;;3.10;;
53299;SDS011;39187;48.476;8.310;2023-04-24T08:15:20;3.47;;;3.37;;
53299;SDS011;39187;48.476;8.310;2023-04-24T08:17:46;3.37;;;3.10;;
53299;SDS011;39187;48.476;8.310;2023-04-24T08:20:12;2.93;;;2.83;;
53299;SDS011;39187;48.476;8.310;2023-04-24T08:22:40;11.10;;;3.60;;
53299;SDS011;39187;48.476;8.310;2023-04-24T08:25:07;2.50;;;2.40;;
53299;SDS011;39187;48.476;8.310;2023-04-24T08:27:33;2.67;;;2.50;;
53299;SDS011;39187;48.476;8.310;2023-04-24T08:29:58;5.60;;;2.97;;
53299;SDS011;39187;48.476;8.310;2023-04-24T08:32:25;2.33;;;1.97;;
53299;SDS011;39187;48.476;8.310;2023-04-24T08:34:57;2.63;;;2.53;;
53299;SDS011;39187;48.476;8.310;2023-04-24T08:37:23;3.00;;;2.80;;
53299;SDS011;39187;48.476;8.310;2023-04-24T08:39:49;3.00;;;2.47;;
53299;SDS011;39187;48.476;8.310;2023-04-24T08:42:15;3.00;;;2.77;;
53299;SDS011;39187;48.476;8.310;2023-04-24T08:44:42;2.70;;;2.50;;
53299;SDS011;39187;48.476;8.310;2023-04-24T08:47:09;2.80;;;2.60;;
53299;SDS011;39187;48.476;8.310;2023-04-24T08:49:36;6.03;;;2.37;;
53299;SDS011;39187;48.476;8.310;2023-04-24T08:52:02;6.67;;;2.33;;
53299;SDS011;39187;48.476;8.310;2023-04-24T08:54:28;3.90;;;2.40;;
53299;SDS011;39187;48.476;8.310;2023-04-24T08:56:55;2.60;;;2.50;;
53299;SDS011;39187;48.476;8.310;2023-04-24T08:59:27;6.33;;;2.10;;
53299;SDS011;39187;48.476;8.310;2023-04-24T09:01:53;2.27;;;2.17;;
53299;SDS011;39187;48.476;8.310;2023-04-24T09:04:20;2.03;;;1.93;;
53299;SDS011;39187;48.476;8.310;2023-04-24T09:06:49;10.73;;;2.23;;
53299;SDS011;39187;48.476;8.310;2023-04-24T09:09:16;2.33;;;2.23;;
53299;SDS011;39187;48.476;8.310;2023-04-24T09:11:43;2.93;;;2.53;;
53299;SDS011;39187;48.476;8.310;2023-04-24T09:14:09;2.80;;;2.27;;
53299;SDS011;39187;48.476;8.310;2023-04-24T09:16:36;2.50;;;1.83;;
53299;SDS011;39187;48.476;8.310;2023-04-24T09:19:01;2.17;;;2.07;;
53299;SDS011;39187;48.476;8.310;2023-04-24T09:21:34;2.00;;;1.90;;
53299;SDS011;39187;48.476;8.310;2023-04-24T09:24:02;2.73;;;2.10;;
53299;SDS011;39187;48.476;8.310;2023-04-24T09:26:34;2.10;;;2.00;;
53299;SDS011;39187;48.476;8.310;2023-04-24T09:29:01;2.30;;;2.20;;
53299;SDS011;39187;48.476;8.310;2023-04-24T09:31:28;2.37;;;2.27;;
53299;SDS011;39187;48.476;8.310;2023-04-24T09:33:55;3.37;;;2.40;;
53299;SDS011;39187;48.476;8.310;2023-04-24T09:36:29;1.87;;;1.77;;
53299;SDS011;39187;48.476;8.310;2023-04-24T09:39:02;4.10;;;1.90;;
53299;SDS011;39187;48.476;8.310;2023-04-24T09:41:33;3.00;;;2.83;;
53299;SDS011;39187;48.476;8.310;2023-04-24T09:46:59;3.13;;;2.73;;
53299;SDS011;39187;48.476;8.310;2023-04-24T09:49:29;2.13;;;2.00;;
53299;SDS011;39187;48.476;8.310;2023-04-24T09:52:04;2.50;;;2.30;;
53299;SDS011;39187;48.476;8.310;2023-04-24T09:54:30;2.70;;;2.60;;
53299;SDS011;39187;48.476;8.310;2023-04-24T09:56:56;2.40;;;2.23;;
53299;SDS011;39187;48.476;8.310;2023-04-24T09:59:23;4.50;;;2.40;;
53299;SDS011;39187;48.476;8.310;2023-04-24T10:01:49;2.30;;;2.20;;
53299;SDS011;39187;48.476;8.310;2023-04-24T10:06:42;2.30;;;2.10;;
53299;SDS011;39187;48.476;8.310;2023-04-24T10:09:08;3.60;;;2.10;;
53299;SDS011;39187;48.476;8.310;2023-04-24T10:11:36;1.83;;;1.73;;
53299;SDS011;39187;48.476;8.310;2023-04-24T10:14:02;2.13;;;2.03;;
53299;SDS011;39187;48.476;8.310;2023-04-24T10:16:28;2.03;;;1.77;;
53299;SDS011;39187;48.476;8.310;2023-04-24T10:18:57;2.40;;;2.27;;
53299;SDS011;39187;48.476;8.310;2023-04-24T10:21:25;3.40;;;2.00;;
53299;SDS011;39187;48.476;8.310;2023-04-24T10:23:52;2.03;;;1.93;;
53299;SDS011;39187;48.476;8.310;2023-04-24T10:26:19;2.33;;;2.10;;
53299;SDS011;39187;48.476;8.310;2023-04-24T10:28:45;1.97;;;1.87;;
53299;SDS011;39187;48.476;8.310;2023-04-24T10:31:12;1.90;;;1.80;;
53299;SDS011;39187;48.476;8.310;2023-04-24T10:33:39;12.87;;;2.63;;
53299;SDS011;39187;48.476;8.310;2023-04-24T10:36:11;4.20;;;1.80;;
53299;SDS011;39187;48.476;8.310;2023-04-24T10:38:40;2.13;;;2.03;;
53299;SDS011;39187;48.476;8.310;2023-04-24T10:41:10;2.20;;;1.70;;
53299;SDS011;39187;48.476;8.310;2023-04-24T10:43:45;1.63;;;1.53;;
53299;SDS011;39187;48.476;8.310;2023-04-24T10:46:16;1.97;;;1.87;;
53299;SDS011;39187;48.476;8.310;2023-04-24T10:48:54;2.00;;;1.90;;
53299;SDS011;39187;48.476;8.310;2023-04-24T10:51:22;2.10;;;2.00;;
53299;SDS011;39187;48.476;8.310;2023-04-24T10:53:51;2.50;;;2.30;;
53299;SDS011;39187;48.476;8.310;2023-04-24T10:56:17;1.93;;;1.83;;
53299;SDS011;39187;48.476;8.310;2023-04-24T10:58:44;2.90;;;2.10;;
53299;SDS011;39187;48.476;8.310;2023-04-24T11:04:01;2.67;;;2.47;;
53299;SDS011;39187;48.476;8.310;2023-04-24T11:06:29;2.73;;;2.53;;
53299;SDS011;39187;48.476;8.310;2023-04-24T11:09:07;2.47;;;2.30;;
53299;SDS011;39187;48.476;8.310;2023-04-24T11:11:35;3.00;;;2.20;;
53299;SDS011;39187;48.476;8.310;2023-04-24T11:14:06;2.20;;;2.10;;
53299;SDS011;39187;48.476;8.310;2023-04-24T11:16:34;1.73;;;1.63;;
53299;SDS011;39187;48.476;8.310;2023-04-24T11:21:47;2.20;;;2.10;;
53299;SDS011;39187;48.476;8.310;2023-04-24T11:27:05;3.27;;;2.30;;
53299;SDS011;39187;48.476;8.310;2023-04-24T11:32:28;1.90;;;1.70;;
53299;SDS011;39187;48.476;8.310;2023-04-24T11:34:54;2.30;;;2.17;;
53299;SDS011;39187;48.476;8.310;2023-04-24T11:37:24;2.70;;;1.83;;
53299;SDS011;39187;48.476;8.310;2023-04-24T11:39:55;2.20;;;2.10;;
53299;SDS011;39187;48.476;8.310;2023-04-24T11:42:23;1.90;;;1.80;;
53299;SDS011;39187;48.476;8.310;2023-04-24T11:44:51;2.90;;;2.70;;
53299;SDS011;39187;48.476;8.310;2023-04-24T11:47:17;3.97;;;2.90;;
53299;SDS011;39187;48.476;8.310;2023-04-24T11:49:43;4.63;;;2.50;;
53299;SDS011;39187;48.476;8.310;2023-04-24T11:52:08;2.97;;;2.83;;
53299;SDS011;39187;48.476;8.310;2023-04-24T11:54:35;3.67;;;3.50;;
53299;SDS011;39187;48.476;8.310;2023-04-24T11:57:03;3.90;;;3.00;;
53299;SDS011;39187;48.476;8.310;2023-04-24T11:59:34;3.03;;;2.57;;
53299;SDS011;39187;48.476;8.310;2023-04-24T12:02:00;2.80;;;2.70;;
53299;SDS011;39187;48.476;8.310;2023-04-24T12:04:26;2.73;;;2.43;;
53299;SDS011;39187;48.476;8.310;2023-04-24T12:07:01;2.63;;;2.43;;
53299;SDS011;39187;48.476;8.310;2023-04-24T12:09:28;3.60;;;3.50;;
53299;SDS011;39187;48.476;8.310;2023-04-24T12:11:54;3.07;;;2.87;;
53299;SDS011;39187;48.476;8.310;2023-04-24T12:14:22;3.90;;;3.60;;
53299;SDS011;39187;48.476;8.310;2023-04-24T12:16:48;2.87;;;2.77;;
53299;SDS011;39187;48.476;8.310;2023-04-24T12:19:22;2.97;;;2.87;;
53299;SDS011;39187;48.476;8.310;2023-04-24T12:22:05;2.93;;;2.83;;
53299;SDS011;39187;48.476;8.310;2023-04-24T12:24:31;3.60;;;2.70;;
53299;SDS011;39187;48.476;8.310;2023-04-24T12:26:57;3.00;;;2.80;;
53299;SDS011;39187;48.476;8.310;2023-04-24T12:29:23;2.90;;;2.70;;
53299;SDS011;39187;48.476;8.310;2023-04-24T12:31:50;3.93;;;2.57;;
53299;SDS011;39187;48.476;8.310;2023-04-24T12:34:22;4.00;;;3.70;;
53299;SDS011;39187;48.476;8.310;2023-04-24T12:36:50;3.33;;;3.07;;
53299;SDS011;39187;48.476;8.310;2023-04-24T12:39:16;2.73;;;2.63;;
53299;SDS011;39187;48.476;8.310;2023-04-24T12:42:16;2.57;;;2.47;;
53299;SDS011;39187;48.476;8.310;2023-04-24T12:44:35;2.23;;;2.13;;
53299;SDS011;39187;48.476;8.310;2023-04-24T12:47:02;7.03;;;2.93;;
53299;SDS011;39187;48.476;8.310;2023-04-24T12:49:27;2.80;;;2.70;;
53299;SDS011;39187;48.476;8.310;2023-04-24T12:51:55;4.63;;;2.57;;
53299;SDS011;39187;48.476;8.310;2023-04-24T12:54:21;2.57;;;2.40;;
53299;SDS011;39187;48.476;8.310;2023-04-24T12:56:47;2.77;;;2.60;;
53299;SDS011;39187;48.476;8.310;2023-04-24T12:59:12;2.93;;;2.47;;
53299;SDS011;39187;48.476;8.310;2023-04-24T13:01:38;3.33;;;3.03;;
53299;SDS011;39187;48.476;8.310;2023-04-24T13:04:04;3.90;;;2.80;;
53299;SDS011;39187;48.476;8.310;2023-04-24T13:06:30;2.70;;;2.50;;
53299;SDS011;39187;48.476;8.310;2023-04-24T13:08:56;3.23;;;2.93;;
53299;SDS011;39187;48.476;8.310;2023-04-24T13:11:23;2.40;;;2.30;;
53299;SDS011;39187;48.476;8.310;2023-04-24T13:13:49;3.70;;;2.27;;
53299;SDS011;39187;48.476;8.310;2023-04-24T13:16:15;2.70;;;2.53;;
53299;SDS011;39187;48.476;8.310;2023-04-24T13:18:40;3.27;;;2.60;;
53299;SDS011;39187;48.476;8.310;2023-04-24T13:21:06;4.57;;;2.60;;
53299;SDS011;39187;48.476;8.310;2023-04-24T13:23:31;2.93;;;2.73;;
53299;SDS011;39187;48.476;8.310;2023-04-24T13:25:57;2.63;;;2.40;;
53299;SDS011;39187;48.476;8.310;2023-04-24T13:28:26;2.27;;;2.17;;
53299;SDS011;39187;48.476;8.310;2023-04-24T13:30:52;3.13;;;2.10;;
53299;SDS011;39187;48.476;8.310;2023-04-24T13:33:18;2.07;;;1.97;;
53299;SDS011;39187;48.476;8.310;2023-04-24T13:35:43;2.77;;;2.67;;
53299;SDS011;39187;48.476;8.310;2023-04-24T13:38:09;2.00;;;1.90;;
53299;SDS011;39187;48.476;8.310;2023-04-24T13:40:34;2.40;;;2.30;;
53299;SDS011;39187;48.476;8.310;2023-04-24T13:43:00;2.87;;;2.77;;
53299;SDS011;39187;48.476;8.310;2023-04-24T13:45:26;3.40;;;2.37;;
53299;SDS011;39187;48.476;8.310;2023-04-24T13:47:52;7.27;;;2.53;;
53299;SDS011;39187;48.476;8.310;2023-04-24T13:50:19;3.03;;;2.83;;
53299;SDS011;39187;48.476;8.310;2023-04-24T13:52:45;3.37;;;3.17;;
53299;SDS011;39187;48.476;8.310;2023-04-24T13:55:10;2.70;;;2.57;;
53299;SDS011;39187;48.476;8.310;2023-04-24T13:57:36;2.60;;;2.40;;
53299;SDS011;39187;48.476;8.310;2023-04-24T14:00:01;3.50;;;2.10;;
53299;SDS011;39187;48.476;8.310;2023-04-24T14:02:29;3.20;;;2.90;;
53299;SDS011;39187;48.476;8.310;2023-04-24T14:04:54;2.87;;;2.60;;
53299;SDS011;39187;48.476;8.310;2023-04-24T14:07:20;2.90;;;2.70;;
53299;SDS011;39187;48.476;8.310;2023-04-24T14:09:45;2.40;;;2.30;;
53299;SDS011;39187;48.476;8.310;2023-04-24T14:12:11;2.73;;;2.63;;
53299;SDS011;39187;48.476;8.310;2023-04-24T14:14:37;3.23;;;2.93;;
53299;SDS011;39187;48.476;8.310;2023-04-24T14:17:03;2.57;;;2.47;;
53299;SDS011;39187;48.476;8.310;2023-04-24T14:19:28;3.27;;;2.97;;
53299;SDS011;39187;48.476;8.310;2023-04-24T14:21:54;3.40;;;3.20;;
53299;SDS011;39187;48.476;8.310;2023-04-24T14:24:21;2.93;;;2.73;;
53299;SDS011;39187;48.476;8.310;2023-04-24T14:26:47;3.53;;;3.33;;
53299;SDS011;39187;48.476;8.310;2023-04-24T14:29:12;2.77;;;2.67;;
53299;SDS011;39187;48.476;8.310;2023-04-24T14:31:38;2.60;;;2.50;;
53299;SDS011;39187;48.476;8.310;2023-04-24T14:34:03;2.83;;;2.63;;
53299;SDS011;39187;48.476;8.310;2023-04-24T14:36:29;3.67;;;3.47;;
53299;SDS011;39187;48.476;8.310;2023-04-24T14:38:55;3.30;;;3.10;;
53299;SDS011;39187;48.476;8.310;2023-04-24T14:41:21;2.80;;;2.60;;
53299;SDS011;39187;48.476;8.310;2023-04-24T14:43:46;2.53;;;2.43;;
53299;SDS011;39187;48.476;8.310;2023-04-24T14:46:12;3.07;;;2.87;;
53299;SDS011;39187;48.476;8.310;2023-04-24T14:48:37;5.53;;;3.03;;
53299;SDS011;39187;48.476;8.310;2023-04-24T14:51:03;4.40;;;2.50;;
53299;SDS011;39187;48.476;8.310;2023-04-24T14:53:28;4.20;;;2.80;;
53299;SDS011;39187;48.476;8.310;2023-04-24T14:55:54;3.10;;;2.90;;
53299;SDS011;39187;48.476;8.310;2023-04-24T14:58:20;2.23;;;2.13;;
53299;SDS011;39187;48.476;8.310;2023-04-24T15:00:46;3.07;;;2.77;;
53299;SDS011;39187;48.476;8.310;2023-04-24T15:03:11;2.70;;;2.60;;